Time;durP1;ratioP1;P1;durP2;ratioP2;P2;SDS_P1;SDS_P2;PMS_P1;PMS_P2;Temp;Humidity;BMP_temperature;BMP_pressure;BME280_temperature;BME280_humidity;BME280_pressure;Samples;Min_cycle;Max_cycle;Signal;HPM_P1;HPM_P2
2023/10/11 05:02:36;;;;;;;21.40;9.70;;;;;;;;;;4933116;29;20779;-74
2023/10/11 05:05:10;;;;;;;26.63;10.77;;;;;;;;;;4934580;29;20421;-74
2023/10/11 05:07:42;;;;;;;32.10;11.00;;;;;;;;;;4934096;29;20405;-75
2023/10/11 05:13:05;;;;;;;27.83;10.70;;;;;;;;;;4959768;23;20461;-70
2023/10/11 05:15:35;;;;;;;26.90;10.73;;;;;;;;;;4958999;28;20401;-70
2023/10/11 05:18:06;;;;;;;28.90;11.03;;;;;;;;;;4954379;28;20409;-68
2023/10/11 05:23:11;;;;;;;30.00;10.73;;;;;;;;;;4954930;29;20479;-71
2023/10/11 05:25:40;;;;;;;22.00;10.37;;;;;;;;;;4954510;28;20963;-71
2023/10/11 05:31:06;;;;;;;29.87;11.87;;;;;;;;;;4957257;28;20772;-69
2023/10/11 05:33:44;;;;;;;28.17;10.80;;;;;;;;;;4948547;29;20932;-71
2023/10/11 05:36:36;;;;;;;31.90;11.30;;;;;;;;;;4942280;29;20968;-69
2023/10/11 05:52:46;;;;;;;31.50;11.90;;;;;;;;;;4960836;29;20505;-68
2023/10/11 05:55:12;;;;;;;26.13;10.10;;;;;;;;;;4957183;28;20547;-70
2023/10/11 05:57:39;;;;;;;31.60;10.00;;;;;;;;;;4957032;28;20409;-70
2023/10/11 06:00:18;;;;;;;28.97;10.27;;;;;;;;;;4957267;28;20783;-70
2023/10/11 06:02:44;;;;;;;45.33;13.53;;;;;;;;;;4956819;28;20456;-69
2023/10/11 06:05:11;;;;;;;28.07;9.77;;;;;;;;;;4956995;29;20409;-70
2023/10/11 06:07:37;;;;;;;25.67;9.90;;;;;;;;;;4956855;28;20405;-71
2023/10/11 06:10:06;;;;;;;31.70;9.63;;;;;;;;;;4957285;29;20409;-68
2023/10/11 06:12:33;;;;;;;38.20;12.33;;;;;;;;;;4959087;28;20408;-69
2023/10/11 06:15:15;;;;;;;34.83;11.83;;;;;;;;;;4959144;28;20516;-69
2023/10/11 06:17:41;;;;;;;25.13;10.27;;;;;;;;;;4956809;28;20386;-69
2023/10/11 06:20:29;;;;;;;26.87;10.30;;;;;;;;;;4956919;29;20524;-68
2023/10/11 06:22:55;;;;;;;29.00;11.40;;;;;;;;;;4956520;29;20471;-69
2023/10/11 06:26:28;;;;;;;27.17;10.23;;;;;;;;;;4955709;29;20421;-68
2023/10/11 06:28:13;;;;;;;36.53;11.60;;;;;;;;;;4953384;29;20472;-69
2023/10/11 06:30:43;;;;;;;23.07;8.97;;;;;;;;;;4957559;28;20908;-69
2023/10/11 06:33:13;;;;;;;29.50;10.60;;;;;;;;;;4956662;29;20432;-69
2023/10/11 06:35:49;;;;;;;29.03;10.77;;;;;;;;;;4957079;28;20419;-69
2023/10/11 06:38:15;;;;;;;27.33;11.00;;;;;;;;;;4956750;28;20473;-69
2023/10/11 06:40:48;;;;;;;24.70;10.40;;;;;;;;;;4956183;28;20421;-70
2023/10/11 06:43:15;;;;;;;26.77;11.30;;;;;;;;;;4956727;28;20846;-70
2023/10/11 06:45:41;;;;;;;25.20;10.53;;;;;;;;;;4955599;29;20452;-70
2023/10/11 06:48:07;;;;;;;26.40;11.10;;;;;;;;;;4956108;29;20417;-70
2023/10/11 06:50:37;;;;;;;33.37;11.97;;;;;;;;;;4955142;29;20917;-68
2023/10/11 06:53:06;;;;;;;26.63;10.30;;;;;;;;;;4956737;29;20444;-68
2023/10/11 06:55:33;;;;;;;18.80;9.50;;;;;;;;;;4956651;28;20489;-69
2023/10/11 06:58:03;;;;;;;24.40;10.57;;;;;;;;;;4961307;28;20413;-71
2023/10/11 07:00:29;;;;;;;27.50;10.90;;;;;;;;;;4973307;28;20481;-72
2023/10/11 07:03:06;;;;;;;24.17;9.93;;;;;;;;;;4976331;28;20539;-72
2023/10/11 07:05:32;;;;;;;26.00;10.33;;;;;;;;;;4976333;28;20523;-73
2023/10/11 07:08:04;;;;;;;30.90;11.60;;;;;;;;;;4976543;28;20460;-70
2023/10/11 07:10:33;;;;;;;31.97;11.97;;;;;;;;;;4960910;28;20804;-70
2023/10/11 07:13:07;;;;;;;30.13;10.43;;;;;;;;;;4960499;29;20448;-70
2023/10/11 07:15:40;;;;;;;38.27;12.27;;;;;;;;;;4963496;28;20404;-70
2023/10/11 07:18:08;;;;;;;22.37;11.60;;;;;;;;;;4961746;28;20476;-70
2023/10/11 07:23:22;;;;;;;21.83;9.73;;;;;;;;;;4958520;29;20551;-70
2023/10/11 07:25:49;;;;;;;30.30;11.00;;;;;;;;;;4958220;29;20405;-69
2023/10/11 07:28:26;;;;;;;31.07;11.40;;;;;;;;;;4957763;28;20424;-70
2023/10/11 07:30:52;;;;;;;25.23;11.60;;;;;;;;;;4958202;28;20428;-70
2023/10/11 07:33:18;;;;;;;35.40;11.10;;;;;;;;;;4957497;29;20440;-70
2023/10/11 07:35:46;;;;;;;31.50;11.03;;;;;;;;;;4957593;29;20475;-69
2023/10/11 07:38:14;;;;;;;23.60;10.93;;;;;;;;;;4957468;28;20838;-70
2023/10/11 07:40:46;;;;;;;23.93;10.07;;;;;;;;;;4957752;28;20420;-69
2023/10/11 07:43:15;;;;;;;26.07;10.27;;;;;;;;;;4963419;28;20483;-70
2023/10/11 07:45:47;;;;;;;38.70;12.07;;;;;;;;;;4959750;28;20452;-70
2023/10/11 07:48:14;;;;;;;25.90;11.47;;;;;;;;;;4958001;28;20445;-70
2023/10/11 07:50:42;;;;;;;25.33;11.70;;;;;;;;;;4957883;28;20476;-69
2023/10/11 07:53:13;;;;;;;26.00;9.17;;;;;;;;;;4957285;28;20435;-69
2023/10/11 07:55:39;;;;;;;26.93;10.60;;;;;;;;;;4956473;28;20761;-69
2023/10/11 07:58:08;;;;;;;28.03;10.80;;;;;;;;;;4956507;29;20412;-69
2023/10/11 08:00:37;;;;;;;27.63;10.03;;;;;;;;;;4956751;28;20444;-70
2023/10/11 08:03:07;;;;;;;27.33;10.23;;;;;;;;;;4956341;28;20467;-69
2023/10/11 08:05:37;;;;;;;20.93;10.47;;;;;;;;;;4956310;28;20405;-69
2023/10/11 08:08:05;;;;;;;31.73;11.67;;;;;;;;;;4956635;28;20409;-71
2023/10/11 08:10:34;;;;;;;29.40;10.90;;;;;;;;;;4955997;28;20544;-69
2023/10/11 08:13:03;;;;;;;25.00;11.23;;;;;;;;;;4955538;29;20508;-69
2023/10/11 08:15:30;;;;;;;31.43;11.30;;;;;;;;;;4955436;28;20417;-68
2023/10/11 08:17:56;;;;;;;23.57;10.63;;;;;;;;;;4955360;29;20964;-71
2023/10/11 08:20:28;;;;;;;32.10;11.43;;;;;;;;;;4955505;29;20416;-70
2023/10/11 08:22:56;;;;;;;28.20;10.10;;;;;;;;;;4954885;28;20500;-70
2023/10/11 08:25:28;;;;;;;22.70;9.70;;;;;;;;;;4956390;28;20468;-71
2023/10/11 08:28:19;;;;;;;29.00;10.33;;;;;;;;;;4956731;28;20463;-70
2023/10/11 08:30:45;;;;;;;38.43;11.37;;;;;;;;;;4956335;28;20405;-70
2023/10/11 08:36:17;;;;;;;24.03;9.77;;;;;;;;;;4954201;29;20396;-70
2023/10/11 08:38:44;;;;;;;27.57;10.20;;;;;;;;;;4954820;28;20421;-69
2023/10/11 08:41:11;;;;;;;29.07;11.23;;;;;;;;;;4955338;28;20908;-69
2023/10/11 08:43:38;;;;;;;29.60;10.80;;;;;;;;;;4955332;28;20464;-69
2023/10/11 08:46:09;;;;;;;21.30;8.87;;;;;;;;;;4955132;29;20408;-69
2023/10/11 08:48:38;;;;;;;28.87;9.13;;;;;;;;;;4953607;29;20467;-69
2023/10/11 08:51:10;;;;;;;33.40;9.07;;;;;;;;;;4955353;29;20979;-70
2023/10/11 08:53:39;;;;;;;23.33;8.90;;;;;;;;;;4957397;29;20520;-71
2023/10/11 08:56:05;;;;;;;26.97;10.00;;;;;;;;;;4959503;29;20413;-70
2023/10/11 08:58:31;;;;;;;26.53;10.60;;;;;;;;;;4966596;28;20416;-69
2023/10/11 09:00:58;;;;;;;24.80;8.70;;;;;;;;;;4958950;29;20459;-70
2023/10/11 09:03:47;;;;;;;42.17;10.37;;;;;;;;;;4957284;28;20589;-70
2023/10/11 09:06:21;;;;;;;24.73;9.40;;;;;;;;;;4964075;29;20915;-69
2023/10/11 09:08:47;;;;;;;25.60;10.53;;;;;;;;;;4958884;29;20423;-68
2023/10/11 09:11:29;;;;;;;27.13;9.53;;;;;;;;;;4957766;29;20409;-68
2023/10/11 09:14:13;;;;;;;36.70;11.83;;;;;;;;;;4958656;29;20529;-69
2023/10/11 09:16:40;;;;;;;24.43;9.67;;;;;;;;;;4964036;29;20419;-70
2023/10/11 09:19:09;;;;;;;25.43;10.27;;;;;;;;;;4958051;29;20409;-69
2023/10/11 09:24:39;;;;;;;23.43;8.90;;;;;;;;;;4957324;29;20441;-69
2023/10/11 09:29:42;;;;;;;20.37;8.90;;;;;;;;;;4957859;29;20950;-69
2023/10/11 09:32:09;;;;;;;21.83;8.63;;;;;;;;;;4958044;28;20826;-70
2023/10/11 09:34:41;;;;;;;23.70;7.80;;;;;;;;;;4958725;28;20463;-69
2023/10/11 09:37:07;;;;;;;14.13;6.20;;;;;;;;;;4956654;29;20447;-71
2023/10/11 09:39:33;;;;;;;30.33;8.13;;;;;;;;;;4957446;29;20936;-71
2023/10/11 09:42:02;;;;;;;28.60;9.20;;;;;;;;;;4957873;29;20534;-70
2023/10/11 09:44:44;;;;;;;23.47;7.60;;;;;;;;;;4957489;28;20424;-69
2023/10/11 09:47:19;;;;;;;20.73;7.63;;;;;;;;;;4956331;28;20401;-70
2023/10/11 09:49:47;;;;;;;27.60;7.70;;;;;;;;;;4958089;28;20812;-70
2023/10/11 09:52:16;;;;;;;15.77;7.03;;;;;;;;;;4956964;28;20409;-69
2023/10/11 09:54:42;;;;;;;20.40;8.30;;;;;;;;;;4957146;28;20483;-70
2023/10/11 09:57:15;;;;;;;29.53;7.90;;;;;;;;;;4957692;29;20413;-70
2023/10/11 10:00:00;;;;;;;24.13;7.13;;;;;;;;;;4956898;28;20463;-71
2023/10/11 10:02:30;;;;;;;22.60;8.00;;;;;;;;;;4957452;28;20523;-71
2023/10/11 10:04:57;;;;;;;23.97;7.20;;;;;;;;;;4957016;29;20421;-69
2023/10/11 10:09:52;;;;;;;26.67;7.73;;;;;;;;;;4957037;29;20517;-70
2023/10/11 10:12:22;;;;;;;26.90;7.97;;;;;;;;;;4957259;28;20440;-70
2023/10/11 10:15:01;;;;;;;21.17;7.60;;;;;;;;;;4956766;28;20452;-70
2023/10/11 10:17:28;;;;;;;20.00;7.60;;;;;;;;;;4956669;29;20409;-70
2023/10/11 10:20:00;;;;;;;28.63;9.10;;;;;;;;;;4956423;28;20508;-70
2023/10/11 10:22:27;;;;;;;30.27;8.13;;;;;;;;;;4956553;28;20504;-70
2023/10/11 10:24:54;;;;;;;24.23;8.50;;;;;;;;;;4956770;29;20428;-69
2023/10/11 10:27:33;;;;;;;22.07;8.00;;;;;;;;;;4956369;29;20452;-72
2023/10/11 10:29:59;;;;;;;19.20;8.10;;;;;;;;;;4956815;28;20404;-70
2023/10/11 10:32:26;;;;;;;17.20;7.33;;;;;;;;;;4956844;29;20909;-71
2023/10/11 10:35:18;;;;;;;16.13;7.60;;;;;;;;;;4956939;29;20511;-70
2023/10/11 10:37:47;;;;;;;21.63;7.50;;;;;;;;;;4957360;28;20409;-70
2023/10/11 10:40:24;;;;;;;17.43;7.20;;;;;;;;;;4956615;29;20463;-70
2023/10/11 10:43:14;;;;;;;21.47;7.77;;;;;;;;;;4954996;29;20464;-71
2023/10/11 10:45:40;;;;;;;22.43;6.20;;;;;;;;;;4956115;28;20409;-69
2023/10/11 10:48:41;;;;;;;21.63;7.13;;;;;;;;;;4955542;29;20420;-69
2023/10/11 10:51:11;;;;;;;23.03;6.63;;;;;;;;;;4951901;29;20433;-71
2023/10/11 10:53:42;;;;;;;15.27;6.67;;;;;;;;;;4955947;28;20459;-70
2023/10/11 10:56:20;;;;;;;15.70;6.20;;;;;;;;;;4958566;29;20432;-73
2023/10/11 10:58:46;;;;;;;18.53;7.00;;;;;;;;;;4966356;29;20876;-71
2023/10/11 11:01:12;;;;;;;25.80;6.80;;;;;;;;;;4958951;29;20425;-70
2023/10/11 11:03:41;;;;;;;15.03;5.93;;;;;;;;;;4955699;29;20483;-70
2023/10/11 11:06:11;;;;;;;20.07;6.47;;;;;;;;;;4959464;28;20774;-70
2023/10/11 11:08:39;;;;;;;19.10;7.23;;;;;;;;;;4956868;28;20416;-71
2023/10/11 11:11:19;;;;;;;23.00;7.13;;;;;;;;;;4955921;28;20779;-70
2023/10/11 11:13:49;;;;;;;13.83;6.80;;;;;;;;;;4955619;28;20502;-71
2023/10/11 11:16:18;;;;;;;24.97;7.73;;;;;;;;;;4955470;29;20444;-72
2023/10/11 11:18:44;;;;;;;20.53;6.67;;;;;;;;;;4955882;29;20415;-72
2023/10/11 11:21:21;;;;;;;16.90;7.00;;;;;;;;;;4955199;29;20413;-70
2023/10/11 11:23:51;;;;;;;23.97;7.87;;;;;;;;;;4955300;28;20801;-70
2023/10/11 11:26:18;;;;;;;18.07;5.80;;;;;;;;;;4955478;29;20756;-72
2023/10/11 11:28:47;;;;;;;26.47;6.80;;;;;;;;;;4954884;28;20399;-70
2023/10/11 11:33:55;;;;;;;19.13;6.33;;;;;;;;;;4955494;29;20439;-69
2023/10/11 11:36:36;;;;;;;15.73;6.30;;;;;;;;;;4955046;28;20727;-70
2023/10/11 11:39:25;;;;;;;30.43;6.50;;;;;;;;;;4954959;28;20475;-69
2023/10/11 11:41:55;;;;;;;15.63;6.50;;;;;;;;;;4961136;28;20523;-71
2023/10/11 11:44:22;;;;;;;17.53;5.80;;;;;;;;;;4956575;28;20417;-71
2023/10/11 11:46:51;;;;;;;20.57;7.30;;;;;;;;;;4954808;29;20445;-71
2023/10/11 11:49:20;;;;;;;17.87;6.70;;;;;;;;;;4956207;29;20433;-71
2023/10/11 11:51:50;;;;;;;20.20;6.43;;;;;;;;;;4956494;29;20783;-69
2023/10/11 11:54:18;;;;;;;16.37;6.90;;;;;;;;;;4955417;28;20924;-70
2023/10/11 11:56:45;;;;;;;30.00;6.80;;;;;;;;;;4955011;28;20423;-71
2023/10/11 11:59:17;;;;;;;26.70;7.60;;;;;;;;;;4954404;28;20463;-70
2023/10/11 12:01:44;;;;;;;14.40;6.37;;;;;;;;;;4953424;29;20559;-70
2023/10/11 12:04:11;;;;;;;17.90;6.97;;;;;;;;;;4954425;29;20424;-71
2023/10/11 12:06:37;;;;;;;21.87;6.30;;;;;;;;;;4955564;28;20439;-69
2023/10/11 12:09:17;;;;;;;23.03;6.53;;;;;;;;;;4954671;28;20413;-71
2023/10/11 12:11:45;;;;;;;25.13;6.33;;;;;;;;;;4954612;28;20904;-69
2023/10/11 12:14:12;;;;;;;22.13;6.80;;;;;;;;;;4953037;29;20460;-71
2023/10/11 12:16:42;;;;;;;21.37;7.37;;;;;;;;;;4954496;28;20909;-70
2023/10/11 12:19:11;;;;;;;15.63;5.90;;;;;;;;;;4954275;28;20475;-70
2023/10/11 12:21:37;;;;;;;23.27;6.70;;;;;;;;;;4954341;28;20439;-69
2023/10/11 12:24:10;;;;;;;17.33;6.13;;;;;;;;;;4954362;29;20928;-70
2023/10/11 12:26:40;;;;;;;15.63;7.27;;;;;;;;;;4954261;28;20448;-71
2023/10/11 12:29:08;;;;;;;20.70;6.80;;;;;;;;;;4952875;29;20413;-69
2023/10/11 12:31:35;;;;;;;15.20;6.23;;;;;;;;;;4954315;28;20408;-71
2023/10/11 12:34:00;;;;;;;14.80;5.43;;;;;;;;;;4954321;29;20447;-70
2023/10/11 12:36:28;;;;;;;18.10;6.13;;;;;;;;;;4954480;29;20416;-69
2023/10/11 12:38:54;;;;;;;15.27;6.60;;;;;;;;;;4952551;28;20413;-70
2023/10/11 12:41:19;;;;;;;13.73;5.03;;;;;;;;;;4957891;29;20424;-69
2023/10/11 12:43:45;;;;;;;16.93;5.30;;;;;;;;;;4956349;29;20480;-69
2023/10/11 12:46:11;;;;;;;21.63;5.77;;;;;;;;;;4957842;29;20440;-69
2023/10/11 12:48:37;;;;;;;18.00;5.60;;;;;;;;;;4956238;29;20420;-70
2023/10/11 12:51:05;;;;;;;15.83;6.20;;;;;;;;;;4958084;29;20415;-68
2023/10/11 12:53:31;;;;;;;13.77;4.97;;;;;;;;;;4957747;28;20437;-69
2023/10/11 12:55:57;;;;;;;11.60;5.27;;;;;;;;;;4957976;29;20421;-71
2023/10/11 12:58:27;;;;;;;14.80;5.50;;;;;;;;;;4957747;29;20414;-71
2023/10/11 13:00:58;;;;;;;13.63;5.93;;;;;;;;;;4959131;28;20413;-71
2023/10/11 13:03:26;;;;;;;12.70;5.37;;;;;;;;;;4961219;28;20988;-71
2023/10/11 13:05:52;;;;;;;14.23;5.80;;;;;;;;;;4965938;28;20421;-69
2023/10/11 13:08:24;;;;;;;11.03;4.47;;;;;;;;;;4960449;29;20416;-69
2023/10/11 13:10:50;;;;;;;14.10;5.00;;;;;;;;;;4958400;28;20549;-70
2023/10/11 13:13:17;;;;;;;15.17;5.30;;;;;;;;;;4957942;29;20487;-70
2023/10/11 13:15:59;;;;;;;17.13;5.73;;;;;;;;;;4957951;29;20415;-71
2023/10/11 13:18:26;;;;;;;10.53;4.60;;;;;;;;;;4957553;28;20440;-70
2023/10/11 13:20:53;;;;;;;10.77;4.80;;;;;;;;;;4957922;28;20424;-69
2023/10/11 13:23:28;;;;;;;15.40;5.63;;;;;;;;;;4957733;28;20491;-70
2023/10/11 13:25:55;;;;;;;12.90;5.10;;;;;;;;;;4958033;28;20443;-70
2023/10/11 13:28:21;;;;;;;19.60;5.70;;;;;;;;;;4957577;28;20439;-69
2023/10/11 13:30:47;;;;;;;12.20;6.00;;;;;;;;;;4957830;29;20833;-69
2023/10/11 13:33:15;;;;;;;20.50;6.20;;;;;;;;;;4957823;29;20448;-69
2023/10/11 13:35:41;;;;;;;13.93;5.37;;;;;;;;;;4958557;28;20449;-69
2023/10/11 13:38:17;;;;;;;14.73;5.67;;;;;;;;;;4957684;29;20463;-71
2023/10/11 13:40:43;;;;;;;8.43;4.07;;;;;;;;;;4957719;28;20475;-70
2023/10/11 13:43:09;;;;;;;11.90;4.73;;;;;;;;;;4957418;28;20608;-70
2023/10/11 13:45:41;;;;;;;10.73;4.13;;;;;;;;;;4964930;29;20397;-71
2023/10/11 13:48:11;;;;;;;11.93;4.33;;;;;;;;;;4977658;28;20432;-70
2023/10/11 13:50:49;;;;;;;12.73;4.23;;;;;;;;;;4977801;28;20460;-74
2023/10/11 13:53:17;;;;;;;8.90;4.07;;;;;;;;;;4978470;28;20432;-71
2023/10/11 13:55:43;;;;;;;13.07;4.50;;;;;;;;;;4967778;28;20447;-71
2023/10/11 13:58:10;;;;;;;15.63;5.17;;;;;;;;;;4961131;29;20989;-69
2023/10/11 14:05:44;;;;;;;8.80;4.37;;;;;;;;;;4960196;29;20800;-68
2023/10/11 14:08:44;;;;;;;15.10;4.10;;;;;;;;;;4958879;28;20496;-69
2023/10/11 14:11:02;;;;;;;10.03;3.53;;;;;;;;;;4955785;29;20417;-70
2023/10/11 14:13:28;;;;;;;12.27;4.80;;;;;;;;;;4959147;29;20463;-71
2023/10/11 14:15:54;;;;;;;10.20;3.87;;;;;;;;;;4957936;29;20505;-71
2023/10/11 14:18:20;;;;;;;13.77;4.20;;;;;;;;;;4958766;29;20463;-69
2023/10/11 14:20:55;;;;;;;10.37;4.07;;;;;;;;;;4958845;29;20427;-70
2023/10/11 14:23:22;;;;;;;9.13;4.50;;;;;;;;;;4957972;28;20495;-68
2023/10/11 14:25:53;;;;;;;9.53;3.70;;;;;;;;;;4962927;29;20421;-71
2023/10/11 14:28:19;;;;;;;8.40;4.03;;;;;;;;;;4962304;28;20452;-69
2023/10/11 14:30:49;;;;;;;10.13;4.57;;;;;;;;;;4957949;29;20456;-68
2023/10/11 14:33:18;;;;;;;18.53;4.33;;;;;;;;;;4958169;28;20432;-69
2023/10/11 14:35:44;;;;;;;10.27;4.40;;;;;;;;;;4957913;28;20437;-69
2023/10/11 14:38:13;;;;;;;13.87;4.27;;;;;;;;;;4957246;29;20417;-69
2023/10/11 14:40:42;;;;;;;15.30;4.17;;;;;;;;;;4956768;28;20495;-68
2023/10/11 14:43:11;;;;;;;11.27;4.70;;;;;;;;;;4957340;28;20476;-69
2023/10/11 14:45:40;;;;;;;10.17;4.20;;;;;;;;;;4956880;28;20409;-68
2023/10/11 14:48:10;;;;;;;8.97;3.83;;;;;;;;;;4956516;29;20409;-70
2023/10/11 14:50:42;;;;;;;18.80;4.80;;;;;;;;;;4957077;29;20411;-69
2023/10/11 14:53:13;;;;;;;10.10;4.00;;;;;;;;;;4957046;28;20447;-70
2023/10/11 14:55:39;;;;;;;10.13;4.37;;;;;;;;;;4956941;28;20417;-70
2023/10/11 14:58:05;;;;;;;16.90;4.90;;;;;;;;;;4956793;29;20970;-69
2023/10/11 15:00:34;;;;;;;10.67;4.20;;;;;;;;;;4958899;29;20420;-68
2023/10/11 15:03:04;;;;;;;11.23;4.40;;;;;;;;;;4956550;28;20534;-70
2023/10/11 15:05:34;;;;;;;9.87;4.57;;;;;;;;;;4956676;28;20492;-68
2023/10/11 15:08:00;;;;;;;8.50;4.57;;;;;;;;;;4956469;29;20416;-69
2023/10/11 15:10:27;;;;;;;11.60;4.57;;;;;;;;;;4955773;29;21056;-70
2023/10/11 15:12:55;;;;;;;8.47;4.23;;;;;;;;;;4957786;29;20417;-70
2023/10/11 15:15:26;;;;;;;10.10;4.53;;;;;;;;;;4959071;28;20416;-70
2023/10/11 15:17:54;;;;;;;9.10;4.03;;;;;;;;;;4955476;29;20931;-69
2023/10/11 15:20:20;;;;;;;10.57;4.47;;;;;;;;;;4956775;29;20436;-69
2023/10/11 15:22:51;;;;;;;7.83;4.13;;;;;;;;;;4957562;29;20464;-68
2023/10/11 15:25:18;;;;;;;14.50;4.37;;;;;;;;;;4956919;28;20433;-69
2023/10/11 15:27:44;;;;;;;12.83;4.70;;;;;;;;;;4956151;28;20464;-71
2023/10/11 15:30:10;;;;;;;13.30;4.10;;;;;;;;;;4956396;29;20881;-69
2023/10/11 15:32:39;;;;;;;14.60;4.87;;;;;;;;;;4956649;29;20417;-69
2023/10/11 15:35:07;;;;;;;9.17;4.30;;;;;;;;;;4955907;28;20919;-71
2023/10/11 15:37:33;;;;;;;16.97;4.63;;;;;;;;;;4962529;28;20420;-70
2023/10/11 15:39:59;;;;;;;8.90;4.30;;;;;;;;;;4956295;29;20964;-69
2023/10/11 15:42:27;;;;;;;12.60;4.43;;;;;;;;;;4955359;29;20472;-70
2023/10/11 15:44:53;;;;;;;14.70;5.10;;;;;;;;;;4955974;28;20799;-70
2023/10/11 15:47:19;;;;;;;12.83;4.70;;;;;;;;;;4955306;29;20448;-68
2023/10/11 15:49:45;;;;;;;8.53;4.13;;;;;;;;;;4955464;29;20756;-70
2023/10/11 15:52:11;;;;;;;9.10;4.20;;;;;;;;;;4955494;29;20417;-68
2023/10/11 15:54:37;;;;;;;13.83;4.67;;;;;;;;;;4955621;28;20445;-70
2023/10/11 15:57:11;;;;;;;11.00;4.90;;;;;;;;;;4956147;28;20421;-68
2023/10/11 15:59:37;;;;;;;12.73;5.17;;;;;;;;;;4956022;28;20972;-69
2023/10/11 16:02:05;;;;;;;12.33;4.70;;;;;;;;;;4955581;29;20456;-69
2023/10/11 16:04:34;;;;;;;15.33;4.53;;;;;;;;;;4955424;28;20522;-70
2023/10/11 16:07:00;;;;;;;9.33;3.73;;;;;;;;;;4955607;29;20909;-68
2023/10/11 16:09:27;;;;;;;9.97;4.13;;;;;;;;;;4953822;29;20465;-69
2023/10/11 16:11:53;;;;;;;11.10;5.90;;;;;;;;;;4955657;29;20927;-69
2023/10/11 16:14:19;;;;;;;10.83;4.87;;;;;;;;;;4954975;28;20463;-69
2023/10/11 16:16:45;;;;;;;14.70;5.10;;;;;;;;;;4957838;29;20424;-70
2023/10/11 16:19:14;;;;;;;13.67;5.47;;;;;;;;;;4954489;29;20504;-68
2023/10/11 16:21:40;;;;;;;11.03;4.30;;;;;;;;;;4954812;29;20772;-69
2023/10/11 16:24:09;;;;;;;15.47;4.97;;;;;;;;;;4954931;29;20474;-69
2023/10/11 16:26:38;;;;;;;14.17;5.17;;;;;;;;;;4954611;29;20467;-68
2023/10/11 16:29:04;;;;;;;12.80;4.73;;;;;;;;;;4954487;28;20412;-72
2023/10/11 16:31:33;;;;;;;20.60;4.83;;;;;;;;;;4953415;29;20425;-70
2023/10/11 16:33:59;;;;;;;16.60;5.10;;;;;;;;;;4954843;29;20539;-68
2023/10/11 16:36:25;;;;;;;14.50;5.37;;;;;;;;;;4954530;29;20448;-68
2023/10/11 16:38:55;;;;;;;10.67;5.10;;;;;;;;;;4954195;29;20512;-68
2023/10/11 16:41:22;;;;;;;10.87;5.00;;;;;;;;;;4954326;28;20750;-70
2023/10/11 16:43:48;;;;;;;23.17;5.90;;;;;;;;;;4954399;29;20589;-71
2023/10/11 16:46:15;;;;;;;9.20;5.17;;;;;;;;;;4954268;29;20412;-70
2023/10/11 16:48:41;;;;;;;8.53;4.77;;;;;;;;;;4954047;29;20409;-68
2023/10/11 16:51:13;;;;;;;19.40;5.57;;;;;;;;;;4954355;29;20496;-69
2023/10/11 16:53:39;;;;;;;10.87;5.33;;;;;;;;;;4954376;29;20436;-69
2023/10/11 16:56:12;;;;;;;15.20;5.90;;;;;;;;;;4953980;29;20417;-69
2023/10/11 16:58:41;;;;;;;8.57;4.60;;;;;;;;;;4953991;29;20500;-69
2023/10/11 17:01:08;;;;;;;17.60;5.43;;;;;;;;;;4954414;29;20417;-69
2023/10/11 17:03:34;;;;;;;13.57;5.03;;;;;;;;;;4954366;29;20490;-68
2023/10/11 17:06:03;;;;;;;9.83;5.07;;;;;;;;;;4954538;29;20965;-70
2023/10/11 17:08:29;;;;;;;12.60;6.10;;;;;;;;;;4954008;28;20839;-71
2023/10/11 17:10:58;;;;;;;15.60;5.20;;;;;;;;;;4959454;29;20405;-70
2023/10/11 17:13:27;;;;;;;9.43;4.80;;;;;;;;;;4965012;23;20451;-71
2023/10/11 17:15:54;;;;;;;12.67;4.97;;;;;;;;;;4915031;29;20434;-72
2023/10/11 17:18:21;;;;;;;17.80;4.57;;;;;;;;;;4914798;29;20422;-70
2023/10/11 17:20:47;;;;;;;11.20;5.30;;;;;;;;;;4915077;29;20402;-70
2023/10/11 17:23:14;;;;;;;10.67;4.67;;;;;;;;;;4916947;29;20461;-70
2023/10/11 17:25:41;;;;;;;17.77;6.00;;;;;;;;;;4935181;29;20414;-70
2023/10/11 17:28:07;;;;;;;13.63;6.00;;;;;;;;;;4937618;29;20406;-70
2023/10/11 17:30:34;;;;;;;13.47;6.33;;;;;;;;;;4937513;29;20410;-70
2023/10/11 17:33:01;;;;;;;23.37;8.30;;;;;;;;;;4936808;29;20920;-71
2023/10/11 17:35:27;;;;;;;20.80;8.30;;;;;;;;;;4937477;29;20932;-71
2023/10/11 17:37:54;;;;;;;28.30;10.97;;;;;;;;;;4936701;29;20417;-73
2023/10/11 17:40:21;;;;;;;19.57;8.03;;;;;;;;;;4950776;29;20429;-72
2023/10/11 17:42:47;;;;;;;20.90;7.83;;;;;;;;;;4941187;28;20461;-70
2023/10/11 17:45:14;;;;;;;19.60;8.20;;;;;;;;;;4937012;29;20444;-70
2023/10/11 17:50:43;;;;;;;19.03;8.13;;;;;;;;;;4933908;29;20549;-71
2023/10/11 17:53:09;;;;;;;26.27;8.77;;;;;;;;;;4935891;29;20500;-71
2023/10/11 17:55:38;;;;;;;17.50;6.63;;;;;;;;;;4937153;29;20833;-71
2023/10/11 17:58:06;;;;;;;13.20;6.60;;;;;;;;;;4937043;29;20516;-71
2023/10/11 18:00:37;;;;;;;10.20;5.60;;;;;;;;;;4937264;29;20643;-70
2023/10/11 18:03:03;;;;;;;14.20;6.40;;;;;;;;;;4933841;29;21023;-71
2023/10/11 18:05:30;;;;;;;16.10;6.80;;;;;;;;;;4926222;29;20430;-71
2023/10/11 18:07:57;;;;;;;18.57;8.07;;;;;;;;;;4928018;29;20426;-71
2023/10/11 18:10:23;;;;;;;17.67;6.67;;;;;;;;;;4929343;29;20425;-71
2023/10/11 18:12:50;;;;;;;15.23;6.10;;;;;;;;;;4936706;29;20456;-71
2023/10/11 18:15:17;;;;;;;16.60;7.20;;;;;;;;;;4919086;29;20466;-71
2023/10/11 18:17:44;;;;;;;20.20;7.63;;;;;;;;;;4922168;29;20445;-71
2023/10/11 18:20:11;;;;;;;25.37;8.60;;;;;;;;;;4917639;29;20426;-70
2023/10/11 18:22:41;;;;;;;17.00;8.60;;;;;;;;;;4931546;29;20929;-70
2023/10/11 18:25:13;;;;;;;26.97;8.43;;;;;;;;;;4935574;29;20840;-71
2023/10/11 18:27:43;;;;;;;23.43;9.20;;;;;;;;;;4936083;29;20441;-71
2023/10/11 18:30:13;;;;;;;30.63;12.43;;;;;;;;;;4936643;29;20832;-73
2023/10/11 18:32:40;;;;;;;28.13;10.67;;;;;;;;;;4936600;29;20452;-70
2023/10/11 18:35:07;;;;;;;20.70;8.80;;;;;;;;;;4936493;29;21193;-70
2023/10/11 18:37:33;;;;;;;22.43;8.77;;;;;;;;;;4936232;29;20492;-71
2023/10/11 18:39:59;;;;;;;20.90;9.23;;;;;;;;;;4936147;29;20417;-70
2023/10/11 18:42:26;;;;;;;22.83;8.93;;;;;;;;;;4936628;29;20980;-70
2023/10/11 18:44:53;;;;;;;26.60;10.87;;;;;;;;;;4934920;29;20898;-70
2023/10/11 18:47:21;;;;;;;28.30;10.33;;;;;;;;;;4935981;29;20425;-70
2023/10/11 18:49:48;;;;;;;19.27;8.83;;;;;;;;;;4935998;29;20442;-70
2023/10/11 18:52:14;;;;;;;23.00;9.13;;;;;;;;;;4936071;29;20422;-70
2023/10/11 18:54:40;;;;;;;20.60;8.37;;;;;;;;;;4935937;29;20472;-70
2023/10/11 18:57:06;;;;;;;22.00;9.63;;;;;;;;;;4935807;29;20409;-70
2023/10/11 18:59:32;;;;;;;20.17;9.43;;;;;;;;;;4936215;29;20421;-70
2023/10/11 19:01:58;;;;;;;16.63;8.37;;;;;;;;;;4935771;29;20417;-70
2023/10/11 19:04:24;;;;;;;25.93;8.63;;;;;;;;;;4935918;29;20429;-70
2023/10/11 19:06:50;;;;;;;18.50;9.10;;;;;;;;;;4935853;29;20508;-70
2023/10/11 19:09:16;;;;;;;19.53;8.90;;;;;;;;;;4933284;29;20442;-70
2023/10/11 19:11:43;;;;;;;20.93;9.80;;;;;;;;;;4933203;29;20425;-70
2023/10/11 19:14:09;;;;;;;22.47;9.93;;;;;;;;;;4935202;29;20544;-71
2023/10/11 19:16:40;;;;;;;23.63;9.23;;;;;;;;;;4936029;29;20426;-74
2023/10/11 19:19:07;;;;;;;27.40;10.63;;;;;;;;;;4935735;29;20410;-71
2023/10/11 19:21:33;;;;;;;19.50;10.20;;;;;;;;;;4933695;29;20980;-73
2023/10/11 19:24:03;;;;;;;23.53;10.37;;;;;;;;;;4935457;29;20473;-71
2023/10/11 19:26:29;;;;;;;22.90;11.00;;;;;;;;;;4936042;29;20456;-71
2023/10/11 19:28:55;;;;;;;37.33;12.43;;;;;;;;;;4940784;29;20413;-70
2023/10/11 19:31:22;;;;;;;28.73;12.30;;;;;;;;;;4939710;29;20410;-71
2023/10/11 19:33:48;;;;;;;36.07;11.57;;;;;;;;;;4936390;29;20448;-71
2023/10/11 19:36:16;;;;;;;31.90;10.80;;;;;;;;;;4938174;29;20426;-71
2023/10/11 19:38:41;;;;;;;26.83;10.43;;;;;;;;;;4935574;29;20429;-70
2023/10/11 19:41:07;;;;;;;25.90;9.80;;;;;;;;;;4933610;29;20426;-70
2023/10/11 19:43:37;;;;;;;26.97;11.60;;;;;;;;;;4935291;29;20477;-70
2023/10/11 19:46:06;;;;;;;32.37;11.17;;;;;;;;;;4933462;29;20459;-70
2023/10/11 19:48:33;;;;;;;26.13;10.93;;;;;;;;;;4933462;29;20488;-73
2023/10/11 19:51:00;;;;;;;26.30;11.50;;;;;;;;;;4934094;29;20426;-73
2023/10/11 19:53:26;;;;;;;25.93;10.90;;;;;;;;;;4932615;29;20437;-72
2023/10/11 19:55:53;;;;;;;24.80;10.30;;;;;;;;;;4933995;29;20486;-73
2023/10/11 19:58:18;;;;;;;32.67;11.27;;;;;;;;;;4930937;29;20438;-75
2023/10/11 20:00:44;;;;;;;23.83;10.53;;;;;;;;;;4932486;29;20513;-72
2023/10/11 20:03:12;;;;;;;22.30;10.40;;;;;;;;;;4931031;29;20480;-72
2023/10/11 20:05:41;;;;;;;28.60;10.90;;;;;;;;;;4934888;29;20414;-72
2023/10/11 20:08:07;;;;;;;29.70;11.37;;;;;;;;;;4934613;29;20469;-72
2023/10/11 20:10:34;;;;;;;22.60;10.13;;;;;;;;;;4934352;29;20430;-72
2023/10/11 20:13:03;;;;;;;23.20;11.00;;;;;;;;;;4934626;29;20417;-72
2023/10/11 20:15:29;;;;;;;25.80;10.40;;;;;;;;;;4934703;29;20532;-72
2023/10/11 20:17:56;;;;;;;29.63;10.47;;;;;;;;;;4934253;29;20825;-72
2023/10/11 20:20:23;;;;;;;25.57;11.50;;;;;;;;;;4933960;29;20467;-73
2023/10/11 20:22:50;;;;;;;28.50;10.00;;;;;;;;;;4933243;29;20584;-72
2023/10/11 20:25:17;;;;;;;26.10;10.63;;;;;;;;;;4934602;29;20826;-71